sensor_id;sensor_type;location;lat;lon;timestamp;temperature;humidity
758;DHT22;363;48.764;9.172;2024-03-06T00:00:58;7.30;99.90
758;DHT22;363;48.764;9.172;2024-03-06T00:03:24;7.50;99.90
758;DHT22;363;48.764;9.172;2024-03-06T00:05:49;7.30;99.90
758;DHT22;363;48.764;9.172;2024-03-06T00:08:15;7.90;99.90
758;DHT22;363;48.764;9.172;2024-03-06T00:10:41;7.50;99.90
758;DHT22;363;48.764;9.172;2024-03-06T00:13:07;8.00;99.90
758;DHT22;363;48.764;9.172;2024-03-06T00:15:33;8.00;99.90
758;DHT22;363;48.764;9.172;2024-03-06T00:17:59;7.40;99.90
758;DHT22;363;48.764;9.172;2024-03-06T00:20:25;7.40;99.90
758;DHT22;363;48.764;9.172;2024-03-06T00:22:50;7.60;99.90
758;DHT22;363;48.764;9.172;2024-03-06T00:25:16;7.30;99.90
758;DHT22;363;48.764;9.172;2024-03-06T00:27:41;7.80;99.90
758;DHT22;363;48.764;9.172;2024-03-06T00:30:07;7.80;99.90
758;DHT22;363;48.764;9.172;2024-03-06T00:32:33;7.40;99.90
758;DHT22;363;48.764;9.172;2024-03-06T00:35:00;7.50;99.90
758;DHT22;363;48.764;9.172;2024-03-06T00:37:27;7.30;99.90
758;DHT22;363;48.764;9.172;2024-03-06T00:39:52;7.90;99.90
758;DHT22;363;48.764;9.172;2024-03-06T00:42:18;7.30;99.90
758;DHT22;363;48.764;9.172;2024-03-06T00:44:43;7.90;99.90
758;DHT22;363;48.764;9.172;2024-03-06T00:47:09;7.10;99.90
758;DHT22;363;48.764;9.172;2024-03-06T00:49:34;7.60;99.90
758;DHT22;363;48.764;9.172;2024-03-06T00:52:00;7.00;99.90
758;DHT22;363;48.764;9.172;2024-03-06T00:54:25;7.50;99.90
758;DHT22;363;48.764;9.172;2024-03-06T00:56:51;8.00;99.90
758;DHT22;363;48.764;9.172;2024-03-06T00:59:16;6.90;99.90
758;DHT22;363;48.764;9.172;2024-03-06T01:01:42;7.40;99.90
758;DHT22;363;48.764;9.172;2024-03-06T01:04:07;7.80;99.90
758;DHT22;363;48.764;9.172;2024-03-06T01:06:33;7.70;99.90
758;DHT22;363;48.764;9.172;2024-03-06T01:08:58;7.50;99.90
758;DHT22;363;48.764;9.172;2024-03-06T01:11:25;7.40;99.90
758;DHT22;363;48.764;9.172;2024-03-06T01:13:51;7.80;99.90
758;DHT22;363;48.764;9.172;2024-03-06T01:16:17;7.70;99.90
758;DHT22;363;48.764;9.172;2024-03-06T01:18:43;7.50;99.90
758;DHT22;363;48.764;9.172;2024-03-06T01:21:09;7.30;99.90
758;DHT22;363;48.764;9.172;2024-03-06T01:23:34;7.40;99.90
758;DHT22;363;48.764;9.172;2024-03-06T01:26:00;7.50;99.90
758;DHT22;363;48.764;9.172;2024-03-06T01:28:25;7.50;99.90
758;DHT22;363;48.764;9.172;2024-03-06T01:30:51;7.90;99.90
758;DHT22;363;48.764;9.172;2024-03-06T01:33:17;7.80;99.90
758;DHT22;363;48.764;9.172;2024-03-06T01:35:42;7.30;99.90
758;DHT22;363;48.764;9.172;2024-03-06T01:38:08;7.40;99.90
758;DHT22;363;48.764;9.172;2024-03-06T01:40:35;7.20;99.90
758;DHT22;363;48.764;9.172;2024-03-06T01:43:01;7.30;99.90
758;DHT22;363;48.764;9.172;2024-03-06T01:45:26;7.20;99.90
758;DHT22;363;48.764;9.172;2024-03-06T01:47:52;7.80;99.90
758;DHT22;363;48.764;9.172;2024-03-06T01:50:18;7.80;99.90
758;DHT22;363;48.764;9.172;2024-03-06T01:52:44;7.40;99.90
758;DHT22;363;48.764;9.172;2024-03-06T01:55:12;7.30;99.90
758;DHT22;363;48.764;9.172;2024-03-06T01:57:39;7.90;99.90
758;DHT22;363;48.764;9.172;2024-03-06T02:00:06;6.90;99.90
758;DHT22;363;48.764;9.172;2024-03-06T02:02:33;7.60;99.90
758;DHT22;363;48.764;9.172;2024-03-06T02:04:59;7.60;99.90
758;DHT22;363;48.764;9.172;2024-03-06T02:07:25;7.60;99.90
758;DHT22;363;48.764;9.172;2024-03-06T02:09:51;7.40;99.90
758;DHT22;363;48.764;9.172;2024-03-06T02:12:17;7.50;99.90
758;DHT22;363;48.764;9.172;2024-03-06T02:14:43;7.50;99.90
758;DHT22;363;48.764;9.172;2024-03-06T02:17:09;7.10;99.90
758;DHT22;363;48.764;9.172;2024-03-06T02:19:42;7.20;99.90
758;DHT22;363;48.764;9.172;2024-03-06T02:22:09;7.40;99.90
758;DHT22;363;48.764;9.172;2024-03-06T02:24:35;7.20;99.90
758;DHT22;363;48.764;9.172;2024-03-06T02:27:02;7.10;99.90
758;DHT22;363;48.764;9.172;2024-03-06T02:29:28;7.30;99.90
758;DHT22;363;48.764;9.172;2024-03-06T02:31:53;7.40;99.90
758;DHT22;363;48.764;9.172;2024-03-06T02:34:19;6.90;99.90
758;DHT22;363;48.764;9.172;2024-03-06T02:36:45;7.30;99.90
758;DHT22;363;48.764;9.172;2024-03-06T02:39:10;7.20;99.90
758;DHT22;363;48.764;9.172;2024-03-06T02:41:36;7.40;99.90
758;DHT22;363;48.764;9.172;2024-03-06T02:44:02;7.20;99.90
758;DHT22;363;48.764;9.172;2024-03-06T02:46:28;7.30;99.90
758;DHT22;363;48.764;9.172;2024-03-06T02:48:53;7.50;99.90
758;DHT22;363;48.764;9.172;2024-03-06T02:51:20;7.20;99.90
758;DHT22;363;48.764;9.172;2024-03-06T02:53:46;7.00;99.90
758;DHT22;363;48.764;9.172;2024-03-06T02:56:18;7.10;99.90
758;DHT22;363;48.764;9.172;2024-03-06T02:58:45;7.10;99.90
758;DHT22;363;48.764;9.172;2024-03-06T03:01:11;7.30;99.90
758;DHT22;363;48.764;9.172;2024-03-06T03:03:36;7.30;99.90
758;DHT22;363;48.764;9.172;2024-03-06T03:06:02;7.20;99.90
758;DHT22;363;48.764;9.172;2024-03-06T03:08:28;7.40;99.90
758;DHT22;363;48.764;9.172;2024-03-06T03:10:53;7.60;99.90
758;DHT22;363;48.764;9.172;2024-03-06T03:13:19;7.20;99.90
758;DHT22;363;48.764;9.172;2024-03-06T03:15:44;7.40;99.90
758;DHT22;363;48.764;9.172;2024-03-06T03:18:10;7.90;99.90
758;DHT22;363;48.764;9.172;2024-03-06T03:20:35;6.90;99.90
758;DHT22;363;48.764;9.172;2024-03-06T03:23:02;6.90;99.90
758;DHT22;363;48.764;9.172;2024-03-06T03:25:27;7.60;99.90
758;DHT22;363;48.764;9.172;2024-03-06T03:27:53;7.40;99.90
758;DHT22;363;48.764;9.172;2024-03-06T03:30:18;7.60;99.90
758;DHT22;363;48.764;9.172;2024-03-06T03:32:47;7.50;99.90
758;DHT22;363;48.764;9.172;2024-03-06T03:35:13;7.30;99.90
758;DHT22;363;48.764;9.172;2024-03-06T03:37:38;7.60;99.90
758;DHT22;363;48.764;9.172;2024-03-06T03:40:05;7.40;99.90
758;DHT22;363;48.764;9.172;2024-03-06T03:42:32;7.50;99.90
758;DHT22;363;48.764;9.172;2024-03-06T03:47:23;7.40;99.90
758;DHT22;363;48.764;9.172;2024-03-06T03:49:49;7.40;99.90
758;DHT22;363;48.764;9.172;2024-03-06T03:52:15;7.90;99.90
758;DHT22;363;48.764;9.172;2024-03-06T03:54:41;7.70;99.90
758;DHT22;363;48.764;9.172;2024-03-06T03:57:06;7.40;99.90
758;DHT22;363;48.764;9.172;2024-03-06T03:59:33;7.50;99.90
758;DHT22;363;48.764;9.172;2024-03-06T04:01:59;7.50;99.90
758;DHT22;363;48.764;9.172;2024-03-06T04:04:24;7.90;99.90
758;DHT22;363;48.764;9.172;2024-03-06T04:06:50;7.50;99.90
758;DHT22;363;48.764;9.172;2024-03-06T04:09:15;7.40;99.90
758;DHT22;363;48.764;9.172;2024-03-06T04:11:41;7.50;99.90
758;DHT22;363;48.764;9.172;2024-03-06T04:14:07;7.60;99.90
758;DHT22;363;48.764;9.172;2024-03-06T04:16:33;7.60;99.90
758;DHT22;363;48.764;9.172;2024-03-06T04:18:59;7.50;99.90
758;DHT22;363;48.764;9.172;2024-03-06T04:21:25;7.70;99.90
758;DHT22;363;48.764;9.172;2024-03-06T04:23:50;7.80;99.90
758;DHT22;363;48.764;9.172;2024-03-06T04:26:16;8.10;99.90
758;DHT22;363;48.764;9.172;2024-03-06T04:28:43;7.50;99.90
758;DHT22;363;48.764;9.172;2024-03-06T04:31:09;6.80;99.90
758;DHT22;363;48.764;9.172;2024-03-06T04:33:34;7.30;99.90
758;DHT22;363;48.764;9.172;2024-03-06T04:36:03;7.50;99.90
758;DHT22;363;48.764;9.172;2024-03-06T04:38:32;7.50;99.90
758;DHT22;363;48.764;9.172;2024-03-06T04:40:58;7.50;99.90
758;DHT22;363;48.764;9.172;2024-03-06T04:43:24;7.30;99.90
758;DHT22;363;48.764;9.172;2024-03-06T04:45:49;7.40;99.90
758;DHT22;363;48.764;9.172;2024-03-06T04:48:15;7.10;99.90
758;DHT22;363;48.764;9.172;2024-03-06T04:50:40;7.40;99.90
758;DHT22;363;48.764;9.172;2024-03-06T04:53:06;7.30;99.90
758;DHT22;363;48.764;9.172;2024-03-06T04:55:32;7.60;99.90
758;DHT22;363;48.764;9.172;2024-03-06T04:57:57;7.40;99.90
758;DHT22;363;48.764;9.172;2024-03-06T05:00:23;7.30;99.90
758;DHT22;363;48.764;9.172;2024-03-06T05:02:49;7.30;99.90
758;DHT22;363;48.764;9.172;2024-03-06T05:05:15;7.50;99.90
758;DHT22;363;48.764;9.172;2024-03-06T05:07:40;7.50;99.90
758;DHT22;363;48.764;9.172;2024-03-06T05:10:06;7.50;99.90
758;DHT22;363;48.764;9.172;2024-03-06T05:12:33;7.50;99.90
758;DHT22;363;48.764;9.172;2024-03-06T05:14:59;7.60;99.90
758;DHT22;363;48.764;9.172;2024-03-06T05:17:25;7.90;99.90
758;DHT22;363;48.764;9.172;2024-03-06T05:19:50;7.50;99.90
758;DHT22;363;48.764;9.172;2024-03-06T05:22:16;7.60;99.90
758;DHT22;363;48.764;9.172;2024-03-06T05:24:43;7.50;99.90
758;DHT22;363;48.764;9.172;2024-03-06T05:27:09;7.50;99.90
758;DHT22;363;48.764;9.172;2024-03-06T05:29:38;7.60;99.90
758;DHT22;363;48.764;9.172;2024-03-06T05:32:05;7.50;99.90
758;DHT22;363;48.764;9.172;2024-03-06T05:34:32;7.50;99.90
758;DHT22;363;48.764;9.172;2024-03-06T05:36:59;7.60;99.90
758;DHT22;363;48.764;9.172;2024-03-06T05:39:24;7.80;99.90
758;DHT22;363;48.764;9.172;2024-03-06T05:41:50;7.50;99.90
758;DHT22;363;48.764;9.172;2024-03-06T05:44:15;7.00;99.90
758;DHT22;363;48.764;9.172;2024-03-06T05:46:41;7.50;99.90
758;DHT22;363;48.764;9.172;2024-03-06T05:49:07;7.00;99.90
758;DHT22;363;48.764;9.172;2024-03-06T05:51:32;7.60;99.90
758;DHT22;363;48.764;9.172;2024-03-06T05:53:58;7.40;99.90
758;DHT22;363;48.764;9.172;2024-03-06T05:56:23;7.10;99.90
758;DHT22;363;48.764;9.172;2024-03-06T05:58:49;7.60;99.90
758;DHT22;363;48.764;9.172;2024-03-06T06:01:18;7.50;99.90
758;DHT22;363;48.764;9.172;2024-03-06T06:03:46;7.50;99.90
758;DHT22;363;48.764;9.172;2024-03-06T06:06:15;7.80;99.90
758;DHT22;363;48.764;9.172;2024-03-06T06:08:40;7.10;99.90
758;DHT22;363;48.764;9.172;2024-03-06T06:11:06;7.80;99.90
758;DHT22;363;48.764;9.172;2024-03-06T06:13:31;7.70;99.90
758;DHT22;363;48.764;9.172;2024-03-06T06:16:00;7.70;99.90
758;DHT22;363;48.764;9.172;2024-03-06T06:18:28;8.20;99.90
758;DHT22;363;48.764;9.172;2024-03-06T06:20:54;7.90;99.90
758;DHT22;363;48.764;9.172;2024-03-06T06:23:19;7.40;99.90
758;DHT22;363;48.764;9.172;2024-03-06T06:25:45;8.10;99.90
758;DHT22;363;48.764;9.172;2024-03-06T06:28:11;7.80;99.90
758;DHT22;363;48.764;9.172;2024-03-06T06:30:36;8.30;99.90
758;DHT22;363;48.764;9.172;2024-03-06T06:33:04;8.00;99.90
758;DHT22;363;48.764;9.172;2024-03-06T06:35:29;7.90;99.90
758;DHT22;363;48.764;9.172;2024-03-06T06:37:55;7.90;99.90
758;DHT22;363;48.764;9.172;2024-03-06T06:40:49;8.10;99.90
758;DHT22;363;48.764;9.172;2024-03-06T06:43:15;8.00;99.90
758;DHT22;363;48.764;9.172;2024-03-06T06:46:03;8.20;99.90
758;DHT22;363;48.764;9.172;2024-03-06T06:49:20;7.00;99.90
758;DHT22;363;48.764;9.172;2024-03-06T06:54:26;8.30;99.90
758;DHT22;363;48.764;9.172;2024-03-06T07:00:35;9.00;99.90
758;DHT22;363;48.764;9.172;2024-03-06T07:03:03;10.00;99.90
758;DHT22;363;48.764;9.172;2024-03-06T07:07:54;8.10;99.90
758;DHT22;363;48.764;9.172;2024-03-06T07:10:21;7.50;99.90
758;DHT22;363;48.764;9.172;2024-03-06T07:12:46;8.40;99.90
758;DHT22;363;48.764;9.172;2024-03-06T07:15:12;8.20;99.90
758;DHT22;363;48.764;9.172;2024-03-06T07:17:39;8.20;99.90
758;DHT22;363;48.764;9.172;2024-03-06T07:20:05;10.40;99.90
758;DHT22;363;48.764;9.172;2024-03-06T07:25:00;8.30;99.90
758;DHT22;363;48.764;9.172;2024-03-06T07:27:28;8.80;99.90
758;DHT22;363;48.764;9.172;2024-03-06T07:29:53;8.50;99.90
758;DHT22;363;48.764;9.172;2024-03-06T07:32:19;8.80;99.90
758;DHT22;363;48.764;9.172;2024-03-06T07:34:45;8.60;99.90
758;DHT22;363;48.764;9.172;2024-03-06T07:37:11;8.30;99.90
758;DHT22;363;48.764;9.172;2024-03-06T07:39:41;8.30;99.90
758;DHT22;363;48.764;9.172;2024-03-06T07:42:06;8.40;99.90
758;DHT22;363;48.764;9.172;2024-03-06T07:44:37;8.10;99.90
758;DHT22;363;48.764;9.172;2024-03-06T07:57:18;8.40;99.90
758;DHT22;363;48.764;9.172;2024-03-06T07:59:48;8.50;99.90
758;DHT22;363;48.764;9.172;2024-03-06T08:02:36;11.30;99.90
758;DHT22;363;48.764;9.172;2024-03-06T08:16:51;8.10;99.90
758;DHT22;363;48.764;9.172;2024-03-06T08:24:08;8.50;99.90
758;DHT22;363;48.764;9.172;2024-03-06T08:32:14;8.90;99.90
758;DHT22;363;48.764;9.172;2024-03-06T08:34:39;8.70;99.90
758;DHT22;363;48.764;9.172;2024-03-06T08:37:04;9.20;99.90
758;DHT22;363;48.764;9.172;2024-03-06T08:39:31;9.00;99.90
758;DHT22;363;48.764;9.172;2024-03-06T08:41:57;9.40;99.90
758;DHT22;363;48.764;9.172;2024-03-06T08:44:29;9.30;99.90
758;DHT22;363;48.764;9.172;2024-03-06T08:46:59;9.00;99.90
758;DHT22;363;48.764;9.172;2024-03-06T08:49:48;7.10;99.90
758;DHT22;363;48.764;9.172;2024-03-06T08:52:14;9.10;99.90
758;DHT22;363;48.764;9.172;2024-03-06T08:55:00;10.20;99.90
758;DHT22;363;48.764;9.172;2024-03-06T09:02:19;9.10;99.90
758;DHT22;363;48.764;9.172;2024-03-06T09:04:46;9.20;99.90
758;DHT22;363;48.764;9.172;2024-03-06T09:07:12;9.30;99.90
758;DHT22;363;48.764;9.172;2024-03-06T09:09:38;9.20;99.90
758;DHT22;363;48.764;9.172;2024-03-06T09:12:08;9.40;99.90
758;DHT22;363;48.764;9.172;2024-03-06T09:14:38;9.50;99.90
758;DHT22;363;48.764;9.172;2024-03-06T09:17:04;9.80;99.90
758;DHT22;363;48.764;9.172;2024-03-06T09:19:33;8.90;99.90
758;DHT22;363;48.764;9.172;2024-03-06T09:21:59;9.50;99.90
758;DHT22;363;48.764;9.172;2024-03-06T09:24:26;8.90;99.90
758;DHT22;363;48.764;9.172;2024-03-06T09:26:52;8.70;99.90
758;DHT22;363;48.764;9.172;2024-03-06T09:29:18;9.30;99.90
758;DHT22;363;48.764;9.172;2024-03-06T09:31:44;8.90;99.90
758;DHT22;363;48.764;9.172;2024-03-06T09:34:11;9.00;99.90
758;DHT22;363;48.764;9.172;2024-03-06T09:36:39;9.20;99.90
758;DHT22;363;48.764;9.172;2024-03-06T09:39:05;9.30;99.90
758;DHT22;363;48.764;9.172;2024-03-06T09:41:31;9.60;99.90
758;DHT22;363;48.764;9.172;2024-03-06T09:43:58;9.30;99.90
758;DHT22;363;48.764;9.172;2024-03-06T09:46:26;9.50;99.90
758;DHT22;363;48.764;9.172;2024-03-06T09:48:52;9.60;99.90
758;DHT22;363;48.764;9.172;2024-03-06T09:51:18;9.60;99.90
758;DHT22;363;48.764;9.172;2024-03-06T09:53:46;9.20;99.90
758;DHT22;363;48.764;9.172;2024-03-06T09:56:15;9.10;99.90
758;DHT22;363;48.764;9.172;2024-03-06T09:58:40;8.90;99.90
758;DHT22;363;48.764;9.172;2024-03-06T10:01:07;8.60;99.90
758;DHT22;363;48.764;9.172;2024-03-06T10:03:33;9.30;99.90
758;DHT22;363;48.764;9.172;2024-03-06T10:06:00;9.10;99.90
758;DHT22;363;48.764;9.172;2024-03-06T10:08:25;8.80;99.90
758;DHT22;363;48.764;9.172;2024-03-06T10:10:52;9.50;99.90
758;DHT22;363;48.764;9.172;2024-03-06T10:13:17;9.40;99.90
758;DHT22;363;48.764;9.172;2024-03-06T10:15:58;9.60;99.90
758;DHT22;363;48.764;9.172;2024-03-06T10:18:30;9.20;99.90
758;DHT22;363;48.764;9.172;2024-03-06T10:20:57;9.00;99.90
758;DHT22;363;48.764;9.172;2024-03-06T10:23:23;9.70;99.90
758;DHT22;363;48.764;9.172;2024-03-06T10:25:50;9.60;99.90
758;DHT22;363;48.764;9.172;2024-03-06T10:28:20;9.20;99.90
758;DHT22;363;48.764;9.172;2024-03-06T10:30:47;8.90;99.90
758;DHT22;363;48.764;9.172;2024-03-06T10:33:14;9.30;99.90
758;DHT22;363;48.764;9.172;2024-03-06T10:35:44;9.50;99.90
758;DHT22;363;48.764;9.172;2024-03-06T10:38:10;9.30;99.90
758;DHT22;363;48.764;9.172;2024-03-06T10:40:41;9.00;99.90
758;DHT22;363;48.764;9.172;2024-03-06T10:43:17;9.30;99.90
758;DHT22;363;48.764;9.172;2024-03-06T10:46:27;9.70;99.90
758;DHT22;363;48.764;9.172;2024-03-06T10:48:55;9.80;99.90
758;DHT22;363;48.764;9.172;2024-03-06T10:51:24;11.80;99.90
758;DHT22;363;48.764;9.172;2024-03-06T10:53:51;10.30;99.90
758;DHT22;363;48.764;9.172;2024-03-06T10:56:21;9.80;99.90
758;DHT22;363;48.764;9.172;2024-03-06T10:58:47;11.20;99.90
758;DHT22;363;48.764;9.172;2024-03-06T11:01:16;10.60;99.90
758;DHT22;363;48.764;9.172;2024-03-06T11:03:42;9.90;99.90
758;DHT22;363;48.764;9.172;2024-03-06T11:06:08;9.60;99.90
758;DHT22;363;48.764;9.172;2024-03-06T11:08:33;9.90;99.90
758;DHT22;363;48.764;9.172;2024-03-06T11:11:19;9.40;99.90
758;DHT22;363;48.764;9.172;2024-03-06T11:13:48;9.50;99.90
758;DHT22;363;48.764;9.172;2024-03-06T11:16:14;10.10;99.90
758;DHT22;363;48.764;9.172;2024-03-06T11:23:34;9.70;99.90
758;DHT22;363;48.764;9.172;2024-03-06T11:26:03;9.20;99.90
758;DHT22;363;48.764;9.172;2024-03-06T11:28:34;11.40;99.90
758;DHT22;363;48.764;9.172;2024-03-06T11:31:05;8.80;99.90
758;DHT22;363;48.764;9.172;2024-03-06T11:36:24;9.20;99.90
758;DHT22;363;48.764;9.172;2024-03-06T11:41:26;9.30;99.90
758;DHT22;363;48.764;9.172;2024-03-06T11:43:53;9.20;99.90
758;DHT22;363;48.764;9.172;2024-03-06T11:46:21;9.10;99.90
758;DHT22;363;48.764;9.172;2024-03-06T11:48:54;9.00;99.90
758;DHT22;363;48.764;9.172;2024-03-06T11:51:23;9.10;99.90
758;DHT22;363;48.764;9.172;2024-03-06T11:53:50;9.50;99.90
758;DHT22;363;48.764;9.172;2024-03-06T11:56:21;9.40;99.90
758;DHT22;363;48.764;9.172;2024-03-06T11:58:56;9.20;99.90
758;DHT22;363;48.764;9.172;2024-03-06T12:01:22;9.30;99.90
758;DHT22;363;48.764;9.172;2024-03-06T12:03:47;9.10;99.90
758;DHT22;363;48.764;9.172;2024-03-06T12:06:13;9.10;99.90
758;DHT22;363;48.764;9.172;2024-03-06T12:08:48;9.00;99.90
758;DHT22;363;48.764;9.172;2024-03-06T12:11:43;8.90;99.90
758;DHT22;363;48.764;9.172;2024-03-06T12:14:19;9.30;99.90
758;DHT22;363;48.764;9.172;2024-03-06T12:16:58;9.00;99.90
758;DHT22;363;48.764;9.172;2024-03-06T12:19:28;9.30;99.90
758;DHT22;363;48.764;9.172;2024-03-06T12:21:55;8.90;99.90
758;DHT22;363;48.764;9.172;2024-03-06T12:27:03;9.10;99.90
758;DHT22;363;48.764;9.172;2024-03-06T12:29:30;9.40;99.90
758;DHT22;363;48.764;9.172;2024-03-06T12:31:57;8.90;99.90
758;DHT22;363;48.764;9.172;2024-03-06T12:37:13;9.10;99.90
758;DHT22;363;48.764;9.172;2024-03-06T12:39:39;11.10;99.90
758;DHT22;363;48.764;9.172;2024-03-06T13:03:34;7.50;99.90
758;DHT22;363;48.764;9.172;2024-03-06T13:06:20;10.40;99.90
758;DHT22;363;48.764;9.172;2024-03-06T13:08:47;8.00;99.90
758;DHT22;363;48.764;9.172;2024-03-06T13:11:19;11.00;99.90
758;DHT22;363;48.764;9.172;2024-03-06T13:13:45;8.70;99.90
758;DHT22;363;48.764;9.172;2024-03-06T13:18:37;8.70;99.90
758;DHT22;363;48.764;9.172;2024-03-06T13:21:02;10.10;99.90
758;DHT22;363;48.764;9.172;2024-03-06T13:25:54;8.80;99.90
758;DHT22;363;48.764;9.172;2024-03-06T13:30:46;8.80;99.90
758;DHT22;363;48.764;9.172;2024-03-06T13:35:39;9.10;99.90
758;DHT22;363;48.764;9.172;2024-03-06T13:40:33;8.80;99.90
758;DHT22;363;48.764;9.172;2024-03-06T13:47:51;8.90;99.90
758;DHT22;363;48.764;9.172;2024-03-06T13:52:59;9.30;99.90
758;DHT22;363;48.764;9.172;2024-03-06T13:58:09;9.00;99.90
758;DHT22;363;48.764;9.172;2024-03-06T14:00:35;9.30;99.90
758;DHT22;363;48.764;9.172;2024-03-06T14:03:01;10.30;99.90
758;DHT22;363;48.764;9.172;2024-03-06T14:16:35;9.90;99.90
758;DHT22;363;48.764;9.172;2024-03-06T15:25:19;9.30;99.90
758;DHT22;363;48.764;9.172;2024-03-06T15:30:12;9.10;99.90
758;DHT22;363;48.764;9.172;2024-03-06T15:32:39;7.50;99.90
758;DHT22;363;48.764;9.172;2024-03-06T15:35:05;9.30;99.90
758;DHT22;363;48.764;9.172;2024-03-06T15:37:31;9.10;99.90
758;DHT22;363;48.764;9.172;2024-03-06T15:42:28;9.10;99.90
758;DHT22;363;48.764;9.172;2024-03-06T15:49:46;9.50;99.90
758;DHT22;363;48.764;9.172;2024-03-06T15:52:13;9.30;99.90
758;DHT22;363;48.764;9.172;2024-03-06T15:54:39;9.50;99.90
758;DHT22;363;48.764;9.172;2024-03-06T15:59:36;9.20;99.90
758;DHT22;363;48.764;9.172;2024-03-06T16:02:02;9.40;99.90
758;DHT22;363;48.764;9.172;2024-03-06T16:04:28;9.10;99.90
758;DHT22;363;48.764;9.172;2024-03-06T16:06:54;9.00;99.90
758;DHT22;363;48.764;9.172;2024-03-06T16:09:20;9.00;99.90
758;DHT22;363;48.764;9.172;2024-03-06T16:11:45;9.60;99.90
758;DHT22;363;48.764;9.172;2024-03-06T16:14:11;9.40;99.90
758;DHT22;363;48.764;9.172;2024-03-06T16:16:40;9.20;99.90
758;DHT22;363;48.764;9.172;2024-03-06T16:19:06;9.00;99.90
758;DHT22;363;48.764;9.172;2024-03-06T16:21:33;9.40;99.90
758;DHT22;363;48.764;9.172;2024-03-06T16:23:59;9.10;99.90
758;DHT22;363;48.764;9.172;2024-03-06T16:26:28;9.10;99.90
758;DHT22;363;48.764;9.172;2024-03-06T16:28:54;9.50;99.90
758;DHT22;363;48.764;9.172;2024-03-06T16:31:20;9.30;99.90
758;DHT22;363;48.764;9.172;2024-03-06T16:33:47;9.50;99.90
758;DHT22;363;48.764;9.172;2024-03-06T16:36:12;9.40;99.90
758;DHT22;363;48.764;9.172;2024-03-06T16:38:38;9.50;99.90
758;DHT22;363;48.764;9.172;2024-03-06T16:41:04;9.60;99.90
758;DHT22;363;48.764;9.172;2024-03-06T16:43:30;9.30;99.90
758;DHT22;363;48.764;9.172;2024-03-06T16:45:55;9.30;99.90
758;DHT22;363;48.764;9.172;2024-03-06T16:55:43;9.40;99.90
758;DHT22;363;48.764;9.172;2024-03-06T16:58:09;9.40;99.90
758;DHT22;363;48.764;9.172;2024-03-06T17:03:04;9.40;99.90
758;DHT22;363;48.764;9.172;2024-03-06T17:05:29;9.40;99.90
758;DHT22;363;48.764;9.172;2024-03-06T17:07:55;8.90;99.90
758;DHT22;363;48.764;9.172;2024-03-06T17:10:22;8.90;99.90
758;DHT22;363;48.764;9.172;2024-03-06T17:15:16;9.20;99.90
758;DHT22;363;48.764;9.172;2024-03-06T17:20:08;9.20;99.90
758;DHT22;363;48.764;9.172;2024-03-06T17:22:34;9.40;99.90
758;DHT22;363;48.764;9.172;2024-03-06T17:29:52;9.10;99.90
758;DHT22;363;48.764;9.172;2024-03-06T17:34:56;9.40;99.90
758;DHT22;363;48.764;9.172;2024-03-06T17:37:22;10.70;99.90
758;DHT22;363;48.764;9.172;2024-03-06T17:39:57;11.30;99.90
758;DHT22;363;48.764;9.172;2024-03-06T17:42:22;8.60;99.90
758;DHT22;363;48.764;9.172;2024-03-06T17:47:14;9.30;99.90
758;DHT22;363;48.764;9.172;2024-03-06T17:49:44;9.50;99.90
758;DHT22;363;48.764;9.172;2024-03-06T17:52:10;8.10;99.90
758;DHT22;363;48.764;9.172;2024-03-06T17:54:35;10.80;99.90
758;DHT22;363;48.764;9.172;2024-03-06T17:57:01;9.70;99.90
758;DHT22;363;48.764;9.172;2024-03-06T17:59:27;9.30;99.90
758;DHT22;363;48.764;9.172;2024-03-06T18:04:28;10.80;99.90
758;DHT22;363;48.764;9.172;2024-03-06T18:06:53;8.00;99.90
758;DHT22;363;48.764;9.172;2024-03-06T18:09:21;9.20;99.90
758;DHT22;363;48.764;9.172;2024-03-06T18:11:47;9.80;99.90
758;DHT22;363;48.764;9.172;2024-03-06T18:14:15;8.10;99.90
758;DHT22;363;48.764;9.172;2024-03-06T18:16:44;10.20;99.90
758;DHT22;363;48.764;9.172;2024-03-06T18:19:15;9.20;99.90
758;DHT22;363;48.764;9.172;2024-03-06T18:21:44;9.30;99.90
758;DHT22;363;48.764;9.172;2024-03-06T18:24:10;9.10;99.90
758;DHT22;363;48.764;9.172;2024-03-06T18:26:41;9.30;99.90
758;DHT22;363;48.764;9.172;2024-03-06T18:29:08;9.10;99.90
758;DHT22;363;48.764;9.172;2024-03-06T18:31:34;9.00;99.90
758;DHT22;363;48.764;9.172;2024-03-06T18:33:59;8.80;99.90
758;DHT22;363;48.764;9.172;2024-03-06T18:36:25;8.90;99.90
758;DHT22;363;48.764;9.172;2024-03-06T18:38:50;9.00;99.90
758;DHT22;363;48.764;9.172;2024-03-06T18:41:16;9.00;99.90
758;DHT22;363;48.764;9.172;2024-03-06T18:43:42;8.90;99.90
758;DHT22;363;48.764;9.172;2024-03-06T18:46:08;8.70;99.90
758;DHT22;363;48.764;9.172;2024-03-06T18:48:34;8.80;99.90
758;DHT22;363;48.764;9.172;2024-03-06T18:51:01;9.10;99.90
758;DHT22;363;48.764;9.172;2024-03-06T18:53:28;9.00;99.90
758;DHT22;363;48.764;9.172;2024-03-06T18:55:54;9.20;99.90
758;DHT22;363;48.764;9.172;2024-03-06T18:58:19;9.00;99.90
758;DHT22;363;48.764;9.172;2024-03-06T19:00:46;8.70;99.90
758;DHT22;363;48.764;9.172;2024-03-06T19:03:12;9.00;99.90
758;DHT22;363;48.764;9.172;2024-03-06T19:05:38;9.40;99.90
758;DHT22;363;48.764;9.172;2024-03-06T19:08:04;8.60;99.90
758;DHT22;363;48.764;9.172;2024-03-06T19:10:30;8.90;99.90
758;DHT22;363;48.764;9.172;2024-03-06T19:12:55;8.90;99.90
758;DHT22;363;48.764;9.172;2024-03-06T19:15:21;9.20;99.90
758;DHT22;363;48.764;9.172;2024-03-06T19:17:46;9.00;99.90
758;DHT22;363;48.764;9.172;2024-03-06T19:20:12;9.10;99.90
758;DHT22;363;48.764;9.172;2024-03-06T19:22:38;8.80;99.90
758;DHT22;363;48.764;9.172;2024-03-06T19:25:08;9.00;99.90
758;DHT22;363;48.764;9.172;2024-03-06T19:27:35;8.90;99.90
758;DHT22;363;48.764;9.172;2024-03-06T19:30:06;9.10;99.90
758;DHT22;363;48.764;9.172;2024-03-06T19:32:36;9.20;99.90
758;DHT22;363;48.764;9.172;2024-03-06T19:37:28;9.10;99.90
758;DHT22;363;48.764;9.172;2024-03-06T19:39:56;8.90;99.90
758;DHT22;363;48.764;9.172;2024-03-06T19:42:22;9.20;99.90
758;DHT22;363;48.764;9.172;2024-03-06T19:44:48;9.50;99.90
758;DHT22;363;48.764;9.172;2024-03-06T19:47:13;9.30;99.90
758;DHT22;363;48.764;9.172;2024-03-06T19:49:39;9.70;99.90
758;DHT22;363;48.764;9.172;2024-03-06T19:52:05;9.40;99.90
758;DHT22;363;48.764;9.172;2024-03-06T19:54:30;9.40;99.90
758;DHT22;363;48.764;9.172;2024-03-06T19:56:57;9.80;99.90
758;DHT22;363;48.764;9.172;2024-03-06T19:59:28;9.90;99.90
758;DHT22;363;48.764;9.172;2024-03-06T20:01:54;9.80;99.90
758;DHT22;363;48.764;9.172;2024-03-06T20:04:21;9.40;99.90
758;DHT22;363;48.764;9.172;2024-03-06T20:06:47;9.60;99.90
758;DHT22;363;48.764;9.172;2024-03-06T20:09:13;9.30;99.90
758;DHT22;363;48.764;9.172;2024-03-06T20:11:39;9.30;99.90
758;DHT22;363;48.764;9.172;2024-03-06T20:14:05;9.20;99.90
758;DHT22;363;48.764;9.172;2024-03-06T20:16:30;9.20;99.90
758;DHT22;363;48.764;9.172;2024-03-06T20:18:56;9.40;99.90
758;DHT22;363;48.764;9.172;2024-03-06T20:21:22;9.90;99.90
758;DHT22;363;48.764;9.172;2024-03-06T20:23:48;9.00;99.90
758;DHT22;363;48.764;9.172;2024-03-06T20:26:14;9.30;99.90
758;DHT22;363;48.764;9.172;2024-03-06T20:28:40;9.10;99.90
758;DHT22;363;48.764;9.172;2024-03-06T20:31:07;9.00;99.90
758;DHT22;363;48.764;9.172;2024-03-06T20:33:32;9.40;99.90
758;DHT22;363;48.764;9.172;2024-03-06T20:35:58;9.60;99.90
758;DHT22;363;48.764;9.172;2024-03-06T20:38:24;9.30;99.90
758;DHT22;363;48.764;9.172;2024-03-06T20:40:49;9.50;99.90